Time;durP1;ratioP1;P1;durP2;ratioP2;P2;SDS_P1;SDS_P2;PMS_P1;PMS_P2;Temp;Humidity;BMP_temperature;BMP_pressure;BME280_temperature;BME280_humidity;BME280_pressure;Samples;Min_cycle;Max_cycle;Signal;HPM_P1;HPM_P2
2021/12/06 00:00:50;;;;;;;19.50;15.70;;;;;;;3.88;80.81;98993.81;5009167;28;20112;-78
2021/12/06 00:03:22;;;;;;;17.13;13.57;;;;;;;3.86;81.24;98995.63;5009514;28;20117;-77
2021/12/06 00:05:48;;;;;;;19.20;14.52;;;;;;;3.83;81.28;98991.38;5008348;28;20381;-76
2021/12/06 00:08:14;;;;;;;15.52;12.00;;;;;;;3.84;81.26;98994.84;5010696;28;20038;-78
2021/12/06 00:10:40;;;;;;;20.20;13.60;;;;;;;3.81;81.08;98990.56;5008884;28;20479;-78
2021/12/06 00:13:06;;;;;;;17.63;13.20;;;;;;;3.81;81.42;98987.13;4993506;28;20069;-78
2021/12/06 00:15:33;;;;;;;18.42;13.18;;;;;;;3.83;81.27;98996.59;5009231;28;20050;-77
2021/12/06 00:18:00;;;;;;;23.13;14.88;;;;;;;3.83;80.97;99000.94;4994727;28;20097;-77
2021/12/06 00:20:28;;;;;;;18.58;13.35;;;;;;;3.86;81.05;99008.66;5012059;28;20030;-77
2021/12/06 00:22:54;;;;;;;21.30;14.27;;;;;;;3.87;80.97;99011.22;5010652;28;20038;-77
2021/12/06 00:25:21;;;;;;;21.05;16.13;;;;;;;3.86;80.58;99022.56;5009240;28;20030;-77
2021/12/06 00:27:47;;;;;;;17.85;13.30;;;;;;;3.83;81.14;99024.41;5009676;28;20505;-77
2021/12/06 00:30:16;;;;;;;24.30;15.77;;;;;;;3.83;81.00;99025.25;5004919;28;20137;-76
2021/12/06 00:32:42;;;;;;;21.02;15.55;;;;;;;3.84;81.07;99029.59;5011592;28;20056;-79
2021/12/06 00:35:17;;;;;;;20.15;12.75;;;;;;;3.86;81.63;99032.13;5008066;28;20091;-78
2021/12/06 00:37:53;;;;;;;18.27;13.68;;;;;;;3.92;81.22;99026.72;5008442;28;20180;-77
2021/12/06 00:40:18;;;;;;;;;;;;;;;3.96;81.13;99036.13;5009919;28;20045;-76
2021/12/06 00:42:43;;;;;;;18.57;13.97;;;;;;;3.97;80.64;99037.00;5007528;28;20424;-76
2021/12/06 00:45:09;;;;;;;19.90;13.40;;;;;;;3.95;80.63;99039.66;5008712;28;20145;-76
2021/12/06 00:47:35;;;;;;;21.98;16.40;;;;;;;3.88;80.62;99045.97;5007419;28;20038;-77
2021/12/06 00:50:00;;;;;;;17.02;12.75;;;;;;;3.87;80.99;99039.06;5009257;28;20120;-77
2021/12/06 00:52:26;;;;;;;17.25;11.48;;;;;;;3.92;81.13;99042.38;5009973;28;20023;-76
2021/12/06 00:54:51;;;;;;;17.10;11.68;;;;;;;3.97;80.93;99045.66;5009397;28;20033;-76
2021/12/06 00:57:17;;;;;;;18.73;13.82;;;;;;;4.01;80.60;99051.59;5009306;28;20582;-76
2021/12/06 00:59:45;;;;;;;15.52;11.82;;;;;;;3.99;80.59;99051.69;5009170;28;20073;-77
2021/12/06 01:02:11;;;;;;;18.90;12.82;;;;;;;3.96;80.15;99054.38;5008914;28;20449;-76
2021/12/06 01:04:40;;;;;;;16.42;12.60;;;;;;;3.99;80.48;99059.50;5009175;28;20033;-76
2021/12/06 01:07:06;;;;;;;20.08;14.70;;;;;;;4.01;80.59;99065.53;5007014;28;20096;-76
2021/12/06 01:09:31;;;;;;;19.92;14.30;;;;;;;3.99;80.83;99063.88;5009219;28;20026;-77
2021/12/06 01:11:57;;;;;;;19.23;14.05;;;;;;;3.98;80.45;99076.03;5022639;28;20053;-77
2021/12/06 01:14:23;;;;;;;20.55;16.45;;;;;;;3.92;80.53;99070.19;4996759;28;20374;-79
2021/12/06 01:16:48;;;;;;;17.55;13.20;;;;;;;3.88;80.88;99072.88;4992703;28;20085;-78
2021/12/06 01:19:14;;;;;;;23.38;15.63;;;;;;;3.88;81.11;99077.25;5013349;28;20125;-77
2021/12/06 01:21:48;;;;;;;24.45;15.88;;;;;;;3.84;81.25;99079.13;5015734;28;20405;-77
2021/12/06 01:24:16;;;;;;;22.00;15.38;;;;;;;3.85;81.36;99087.78;5013196;28;20050;-77
2021/12/06 01:32:03;;;;;;;20.00;14.38;;;;;;;3.74;81.34;99092.50;5018218;28;20549;-77
2021/12/06 01:39:56;;;;;;;19.20;14.35;;;;;;;3.66;82.02;99104.03;5021737;28;20041;-76
2021/12/06 01:42:22;;;;;;;15.95;13.32;;;;;;;3.72;82.04;99105.59;5013541;28;20038;-77
2021/12/06 01:44:54;;;;;;;17.67;12.63;;;;;;;3.79;81.76;99117.53;5014402;28;20049;-76
2021/12/06 01:47:29;;;;;;;18.65;13.93;;;;;;;3.87;81.18;99117.28;5018153;28;20041;-76
2021/12/06 01:50:06;;;;;;;20.38;14.23;;;;;;;3.87;80.98;99128.56;5018926;28;20038;-76
2021/12/06 01:52:35;;;;;;;24.60;16.42;;;;;;;3.86;80.92;99124.25;5019860;28;20077;-76
2021/12/06 01:55:05;;;;;;;21.38;14.45;;;;;;;3.81;81.48;99127.91;5019787;28;20040;-76
2021/12/06 01:57:31;;;;;;;28.10;18.38;;;;;;;3.74;81.14;99126.38;5026875;28;20068;-76
2021/12/06 01:59:58;;;;;;;21.77;15.98;;;;;;;3.75;81.52;99135.94;5015804;28;20042;-76
2021/12/06 02:02:25;;;;;;;22.50;14.43;;;;;;;3.76;81.73;99135.00;4986806;28;20045;-77
2021/12/06 02:04:50;;;;;;;21.73;15.15;;;;;;;3.76;81.73;99135.00;5013337;28;20030;-76
2021/12/06 02:07:20;;;;;;;22.33;16.67;;;;;;;3.71;81.54;99142.13;5010991;28;20124;-77
2021/12/06 02:09:47;;;;;;;16.35;12.95;;;;;;;3.69;82.04;99136.09;5011160;28;20065;-77
2021/12/06 02:12:15;;;;;;;26.30;18.17;;;;;;;3.72;81.46;99138.66;5009977;28;20038;-78
2021/12/06 02:14:59;;;;;;;19.95;14.98;;;;;;;3.69;81.70;99144.78;5010833;28;20034;-76
2021/12/06 02:17:30;;;;;;;23.63;15.02;;;;;;;3.67;81.72;99141.38;5009730;28;20132;-76
2021/12/06 02:20:05;;;;;;;20.50;15.05;;;;;;;3.70;81.57;99140.44;5010247;28;20040;-76
2021/12/06 02:22:33;;;;;;;22.20;18.20;;;;;;;3.65;81.38;99146.63;5007732;28;20030;-76
2021/12/06 02:24:59;;;;;;;23.95;17.05;;;;;;;3.60;81.66;99147.69;5011409;28;20030;-75
2021/12/06 02:27:28;;;;;;;18.58;13.23;;;;;;;3.53;81.59;99148.78;5010786;28;20117;-76
2021/12/06 02:29:56;;;;;;;21.88;15.85;;;;;;;3.46;82.01;99147.25;5011329;28;20445;-78
2021/12/06 02:32:22;;;;;;;16.73;11.77;;;;;;;3.49;82.09;99152.38;5010735;28;20033;-76
2021/12/06 02:34:52;;;;;;;18.70;13.10;;;;;;;3.50;82.07;99160.16;5009137;28;20378;-76
2021/12/06 02:37:22;;;;;;;28.73;17.35;;;;;;;3.47;81.94;99159.38;5010891;28;20040;-77
2021/12/06 02:39:48;;;;;;;21.95;13.27;;;;;;;3.45;82.08;99162.03;5010814;28;20497;-76
2021/12/06 02:42:15;;;;;;;16.23;12.68;;;;;;;3.43;81.94;99164.69;5011162;28;20056;-76
2021/12/06 02:44:43;;;;;;;28.73;18.35;;;;;;;3.36;81.93;99162.31;5011227;28;20038;-75
2021/12/06 02:47:08;;;;;;;23.35;15.85;;;;;;;3.25;82.23;99167.84;5011560;28;20062;-76
2021/12/06 02:49:34;;;;;;;20.63;14.73;;;;;;;3.28;82.89;99178.19;5011032;28;20083;-75
2021/12/06 02:52:00;;;;;;;20.85;14.80;;;;;;;3.26;82.60;99172.16;5011954;28;20448;-78
2021/12/06 02:54:26;;;;;;;20.88;15.25;;;;;;;3.27;82.39;99175.59;5010679;28;20042;-77
2021/12/06 02:59:20;;;;;;;23.20;16.92;;;;;;;3.27;82.65;99181.66;5011442;28;20049;-77
2021/12/06 03:01:53;;;;;;;17.33;12.23;;;;;;;3.30;82.60;99184.19;5010167;28;20374;-77
2021/12/06 03:04:19;;;;;;;20.13;14.85;;;;;;;3.35;82.25;99184.91;5010433;28;20425;-77
2021/12/06 03:06:47;;;;;;;17.38;12.57;;;;;;;3.34;82.01;99183.19;4996161;28;20037;-78
2021/12/06 03:09:18;;;;;;;21.65;14.30;;;;;;;3.33;81.94;99184.09;5017572;28;20046;-77
2021/12/06 03:11:48;;;;;;;26.08;16.98;;;;;;;3.30;82.06;99189.41;5017657;28;20038;-77
2021/12/06 03:14:19;;;;;;;19.92;14.05;;;;;;;3.27;82.14;99196.44;5015450;28;20103;-77
2021/12/06 03:16:44;;;;;;;17.48;12.68;;;;;;;3.24;82.48;99194.78;5009353;28;20615;-77
2021/12/06 03:19:10;;;;;;;17.90;12.55;;;;;;;3.26;82.08;99205.16;5010467;28;20049;-77
2021/12/06 03:21:36;;;;;;;20.88;15.52;;;;;;;3.24;82.04;99197.38;5010934;28;20099;-77
2021/12/06 03:24:03;;;;;;;23.17;16.08;;;;;;;3.19;82.29;99205.31;5010566;28;20046;-77
2021/12/06 03:26:30;;;;;;;24.20;16.73;;;;;;;3.10;82.45;99215.16;5010057;28;20041;-77
2021/12/06 03:28:55;;;;;;;26.40;16.70;;;;;;;3.05;82.42;99228.28;5009883;28;20517;-77
2021/12/06 03:31:22;;;;;;;18.27;11.00;;;;;;;3.09;83.18;99227.31;5008837;28;20057;-75
2021/12/06 03:33:50;;;;;;;20.17;14.98;;;;;;;3.16;82.56;99226.25;5009903;28;20038;-75
2021/12/06 03:36:17;;;;;;;22.85;15.63;;;;;;;3.15;82.57;99224.56;5007683;28;20038;-75
2021/12/06 03:38:43;;;;;;;18.77;13.90;;;;;;;3.18;82.83;99223.63;5008783;28;20030;-75
2021/12/06 03:41:11;;;;;;;21.90;13.65;;;;;;;3.24;82.38;99226.03;5009346;28;20540;-75
2021/12/06 03:43:38;;;;;;;21.98;14.60;;;;;;;3.26;82.32;99232.06;5009852;28;20045;-75
2021/12/06 03:46:04;;;;;;;24.08;14.73;;;;;;;3.28;82.29;99238.09;5008953;28;20053;-76
2021/12/06 03:48:31;;;;;;;21.27;15.27;;;;;;;3.33;81.81;99246.63;5010017;28;20117;-77
2021/12/06 03:50:57;;;;;;;16.95;13.00;;;;;;;3.35;82.33;99239.63;5008644;28;20034;-76
2021/12/06 03:53:23;;;;;;;25.27;17.92;;;;;;;3.38;82.39;99242.13;5009589;28;20034;-76
2021/12/06 03:55:48;;;;;;;25.52;18.27;;;;;;;3.40;82.93;99242.09;5006631;28;20495;-75
2021/12/06 03:58:14;;;;;;;26.95;18.00;;;;;;;3.40;83.08;99236.91;4988823;28;20049;-76
2021/12/06 04:00:39;;;;;;;28.98;20.67;;;;;;;3.41;83.17;99233.38;4988200;28;20452;-76
2021/12/06 04:03:05;;;;;;;28.65;21.33;;;;;;;3.40;82.98;99239.50;4988722;28;20080;-75
2021/12/06 04:05:31;;;;;;;24.65;16.92;;;;;;;3.37;83.32;99243.06;4991070;28;20040;-77
2021/12/06 04:07:56;;;;;;;28.50;18.23;;;;;;;3.41;83.29;99243.78;4991831;28;20482;-76
2021/12/06 04:10:25;;;;;;;29.20;21.52;;;;;;;3.41;82.96;99244.66;4989296;28;20046;-76
2021/12/06 04:12:50;;;;;;;40.42;24.98;;;;;;;3.41;82.95;99243.78;4988742;28;20053;-77
2021/12/06 04:15:16;;;;;;;28.45;18.23;;;;;;;3.37;83.45;99242.16;4988863;28;20042;-76
2021/12/06 04:17:41;;;;;;;27.88;21.15;;;;;;;3.36;83.20;99237.88;4990784;28;20037;-76
2021/12/06 04:20:10;;;;;;;37.78;25.90;;;;;;;3.35;83.27;99244.84;5008515;28;20088;-77
2021/12/06 04:22:37;;;;;;;37.90;24.23;;;;;;;3.27;83.24;99245.94;5012109;28;20041;-78
2021/12/06 04:25:04;;;;;;;32.08;24.55;;;;;;;3.21;83.43;99249.56;5010174;28;20651;-77
2021/12/06 04:27:30;;;;;;;25.25;18.17;;;;;;;3.18;83.96;99250.53;5010016;28;20042;-77
2021/12/06 04:29:56;;;;;;;33.97;23.65;;;;;;;3.14;83.37;99254.09;5010778;28;20034;-76
2021/12/06 04:32:23;;;;;;;29.60;20.33;;;;;;;3.08;83.36;99251.66;5010648;28;20049;-77
2021/12/06 04:34:49;;;;;;;31.33;23.75;;;;;;;3.07;83.46;99260.38;5010512;28;20030;-77
2021/12/06 04:37:15;;;;;;;36.05;22.70;;;;;;;3.02;83.35;99259.63;5010333;28;20042;-76
2021/12/06 04:39:41;;;;;;;35.00;23.35;;;;;;;2.95;83.77;99263.28;5015091;28;20065;-75
2021/12/06 04:42:08;;;;;;;25.58;16.35;;;;;;;2.88;83.32;99270.44;5011428;28;20552;-78
2021/12/06 04:44:33;;;;;;;34.92;22.42;;;;;;;2.80;83.36;99268.00;5009101;28;20108;-77
2021/12/06 04:47:02;;;;;;;40.92;24.95;;;;;;;2.78;83.57;99274.16;5012000;28;20049;-77
2021/12/06 04:49:29;;;;;;;29.50;20.48;;;;;;;2.73;83.79;99279.50;5010116;28;20037;-77
2021/12/06 04:51:58;;;;;;;25.85;18.60;;;;;;;2.62;83.41;99275.44;4992085;28;20065;-76
2021/12/06 04:54:30;;;;;;;38.53;24.02;;;;;;;2.54;83.34;99279.09;5007822;28;20038;-77
2021/12/06 04:57:02;;;;;;;26.08;16.75;;;;;;;2.43;83.79;99282.84;5007713;28;20132;-77
2021/12/06 04:59:27;;;;;;;25.23;17.67;;;;;;;2.36;83.72;99290.81;5010446;28;20038;-76
2021/12/06 05:01:56;;;;;;;24.95;17.05;;;;;;;2.35;83.79;99302.09;5010045;28;20041;-77
2021/12/06 05:04:28;;;;;;;22.80;15.77;;;;;;;2.34;83.69;99296.94;5012676;28;20042;-77
2021/12/06 05:06:59;;;;;;;24.42;16.27;;;;;;;2.36;83.77;99298.63;5014833;28;20038;-76
2021/12/06 05:09:32;;;;;;;21.80;14.68;;;;;;;2.34;84.01;99305.59;5013720;28;20050;-77
2021/12/06 05:11:57;;;;;;;26.70;16.25;;;;;;;2.38;83.92;99300.31;5011155;28;20092;-77
2021/12/06 05:14:25;;;;;;;20.45;14.85;;;;;;;2.38;83.82;99302.91;5023603;28;20041;-78
2021/12/06 05:16:51;;;;;;;23.60;13.98;;;;;;;2.41;83.46;99305.44;5024431;28;20045;-77
2021/12/06 05:19:17;;;;;;;24.98;17.25;;;;;;;2.37;83.47;99302.06;5027805;28;20105;-78
2021/12/06 05:21:42;;;;;;;20.85;13.70;;;;;;;2.39;83.59;99302.00;5030772;28;20038;-78
2021/12/06 05:24:08;;;;;;;22.65;14.40;;;;;;;2.36;83.20;99306.41;5030657;28;20060;-78
2021/12/06 05:26:35;;;;;;;19.00;13.90;;;;;;;2.36;82.81;99311.63;5025026;28;20501;-78
2021/12/06 05:29:04;;;;;;;20.35;12.65;;;;;;;2.36;82.69;99316.81;5017679;28;20046;-78
2021/12/06 05:31:30;;;;;;;21.33;13.70;;;;;;;2.31;82.44;99317.78;5029734;28;20042;-78
2021/12/06 05:34:01;;;;;;;20.23;13.15;;;;;;;2.26;82.46;99322.25;5030248;28;20042;-79
2021/12/06 05:36:27;;;;;;;23.77;14.07;;;;;;;2.20;82.61;99325.00;5020626;28;20049;-79
2021/12/06 05:38:54;;;;;;;24.17;14.65;;;;;;;2.14;82.62;99329.47;5022961;28;20042;-78
2021/12/06 05:41:20;;;;;;;27.23;16.67;;;;;;;2.09;82.20;99328.72;5021643;28;20050;-78
2021/12/06 05:43:46;;;;;;;23.30;14.18;;;;;;;2.09;82.55;99327.81;5021399;28;20046;-78
2021/12/06 05:46:12;;;;;;;24.05;14.95;;;;;;;2.11;82.37;99326.91;5021462;28;20501;-78
2021/12/06 05:48:38;;;;;;;17.75;12.27;;;;;;;2.06;82.28;99335.72;5021053;28;20034;-78
2021/12/06 05:51:04;;;;;;;24.23;14.57;;;;;;;2.11;82.45;99344.25;5021436;28;20048;-78
2021/12/06 05:53:29;;;;;;;20.00;14.52;;;;;;;2.08;82.15;99339.97;5017141;28;20038;-77
2021/12/06 05:55:55;;;;;;;17.95;11.13;;;;;;;2.03;83.15;99344.44;5012860;28;20034;-76
2021/12/06 05:58:22;;;;;;;21.00;14.50;;;;;;;2.07;82.31;99343.47;5010733;28;20057;-77
2021/12/06 06:00:48;;;;;;;22.85;14.77;;;;;;;2.09;82.76;99336.50;5011897;28;20042;-75
2021/12/06 06:03:15;;;;;;;21.05;15.35;;;;;;;2.10;82.98;99340.81;5013130;28;20072;-76
2021/12/06 06:05:42;;;;;;;29.85;19.80;;;;;;;2.07;83.20;99343.47;5008603;28;20125;-77
2021/12/06 06:08:08;;;;;;;28.42;18.00;;;;;;;2.01;83.11;99340.16;5013308;28;20045;-77
2021/12/06 06:10:35;;;;;;;28.65;16.92;;;;;;;1.91;83.52;99342.09;5013940;28;20046;-77
2021/12/06 06:13:02;;;;;;;21.90;13.73;;;;;;;1.92;83.89;99339.47;5021435;28;20045;-79
2021/12/06 06:15:29;;;;;;;28.83;15.77;;;;;;;1.95;83.22;99351.53;5023703;28;20114;-78
2021/12/06 06:17:58;;;;;;;19.17;14.55;;;;;;;1.88;82.90;99343.00;5022759;28;20030;-78
2021/12/06 06:20:38;;;;;;;23.45;15.43;;;;;;;1.85;82.65;99347.44;5019227;28;20377;-79
2021/12/06 06:23:04;;;;;;;21.40;13.10;;;;;;;1.83;83.26;99352.66;5013250;28;20077;-78
2021/12/06 06:25:30;;;;;;;25.95;17.17;;;;;;;1.84;83.15;99358.69;5012627;28;20049;-78
2021/12/06 06:27:56;;;;;;;30.80;17.27;;;;;;;1.74;82.28;99351.97;5010005;28;20057;-77
2021/12/06 06:30:21;;;;;;;27.92;16.25;;;;;;;1.63;83.50;99347.88;5010308;28;20104;-76
2021/12/06 06:32:47;;;;;;;27.67;17.30;;;;;;;1.73;83.92;99355.47;5015244;28;20114;-78
2021/12/06 06:35:14;;;;;;;28.42;17.88;;;;;;;1.60;83.38;99345.34;5017698;28;20481;-76
2021/12/06 06:37:40;;;;;;;25.65;17.48;;;;;;;1.59;84.11;99345.34;5018004;28;20034;-80
2021/12/06 06:40:06;;;;;;;27.33;16.83;;;;;;;1.66;84.63;99346.94;5012145;28;20180;-79
2021/12/06 06:42:32;;;;;;;27.00;17.35;;;;;;;1.75;85.39;99346.75;5012604;28;20034;-76
2021/12/06 06:44:57;;;;;;;36.05;21.33;;;;;;;1.83;84.57;99347.44;5011798;28;20044;-77
2021/12/06 06:47:23;;;;;;;33.88;21.75;;;;;;;1.85;84.78;99347.44;5011041;28;20045;-77
2021/12/06 06:49:49;;;;;;;31.48;19.58;;;;;;;1.94;85.02;99349.81;5012435;28;20034;-77
2021/12/06 06:52:15;;;;;;;36.38;19.77;;;;;;;1.99;84.80;99360.97;5013055;28;20057;-77
2021/12/06 06:54:41;;;;;;;37.78;22.63;;;;;;;2.09;85.20;99359.91;5016523;28;20053;-77
2021/12/06 06:57:07;;;;;;;31.58;18.23;;;;;;;2.17;85.16;99372.75;5011878;28;20092;-77
2021/12/06 06:59:32;;;;;;;51.50;26.55;;;;;;;2.15;84.00;99364.97;5012315;28;20038;-78
2021/12/06 07:01:58;;;;;;;36.05;19.83;;;;;;;2.15;84.78;99372.75;5011544;28;20393;-77
2021/12/06 07:04:24;;;;;;;28.25;17.88;;;;;;;2.21;85.26;99369.16;5010841;28;20092;-76
2021/12/06 07:06:51;;;;;;;42.08;23.63;;;;;;;2.29;84.59;99375.06;5010714;28;20030;-77
2021/12/06 07:09:16;;;;;;;30.50;18.10;;;;;;;2.33;84.86;99371.50;5011392;28;20042;-78
2021/12/06 07:11:44;;;;;;;38.28;20.73;;;;;;;2.36;83.86;99381.84;5010640;28;20085;-78
2021/12/06 07:14:11;;;;;;;31.63;20.52;;;;;;;2.44;84.70;99379.06;5010806;28;20382;-77
2021/12/06 07:16:36;;;;;;;31.90;18.98;;;;;;;2.46;84.06;99387.72;5010300;28;20084;-77
2021/12/06 07:19:02;;;;;;;38.28;22.80;;;;;;;2.49;84.30;99391.97;5012310;28;20030;-77
2021/12/06 07:21:27;;;;;;;27.50;19.50;;;;;;;2.54;84.47;99384.94;5011594;28;20044;-76
2021/12/06 07:23:52;;;;;;;47.00;25.98;;;;;;;2.55;83.92;99394.44;5009939;28;20045;-76
2021/12/06 07:26:19;;;;;;;34.67;19.02;;;;;;;2.53;83.97;99397.06;5007877;28;20038;-76
2021/12/06 07:28:46;;;;;;;29.08;18.42;;;;;;;2.55;83.81;99397.03;5010056;28;20064;-75
2021/12/06 07:31:14;;;;;;;26.63;17.27;;;;;;;2.54;83.46;99397.94;5008823;28;20042;-76
2021/12/06 07:33:44;;;;;;;26.50;16.02;;;;;;;2.54;83.30;99406.59;5008327;28;20034;-77
2021/12/06 07:36:10;;;;;;;23.90;16.05;;;;;;;2.54;83.30;99405.75;5008953;28;20046;-75
2021/12/06 07:38:37;;;;;;;26.77;17.55;;;;;;;2.57;83.44;99409.13;5010401;28;20087;-75
2021/12/06 07:41:07;;;;;;;25.98;17.90;;;;;;;2.56;83.21;99397.00;5010205;28;20091;-76
2021/12/06 07:43:33;;;;;;;26.58;16.58;;;;;;;2.58;83.09;99402.16;5010073;28;20041;-76
2021/12/06 07:45:59;;;;;;;24.73;16.27;;;;;;;2.60;83.14;99413.38;5012799;28;20045;-78
2021/12/06 07:48:24;;;;;;;21.13;14.80;;;;;;;2.59;82.79;99414.28;5012399;28;20167;-79
2021/12/06 07:50:49;;;;;;;25.92;16.45;;;;;;;2.57;82.61;99419.53;5013043;28;20037;-77
2021/12/06 07:53:15;;;;;;;23.25;14.90;;;;;;;2.55;82.83;99412.66;5017919;28;20038;-78
2021/12/06 07:55:40;;;;;;;27.45;16.90;;;;;;;2.54;82.89;99419.59;5013547;28;20045;-77
2021/12/06 07:58:08;;;;;;;24.27;16.55;;;;;;;2.53;82.53;99414.41;5012113;28;20418;-77
2021/12/06 08:00:38;;;;;;;24.52;15.48;;;;;;;2.54;82.42;99416.16;5018399;28;20088;-76
2021/12/06 08:03:03;;;;;;;24.35;15.23;;;;;;;2.46;82.39;99413.72;5006530;28;20034;-77
2021/12/06 08:05:35;;;;;;;26.90;16.38;;;;;;;2.43;82.45;99412.91;5011373;28;20042;-76
2021/12/06 08:08:08;;;;;;;22.42;15.02;;;;;;;2.45;82.58;99417.19;5008532;28;20092;-76
2021/12/06 08:10:37;;;;;;;22.90;13.98;;;;;;;2.50;82.73;99420.53;5011076;28;20034;-77
2021/12/06 08:13:03;;;;;;;29.85;18.88;;;;;;;2.49;81.99;99421.44;5009004;28;20041;-76
2021/12/06 08:15:29;;;;;;;17.90;12.15;;;;;;;2.46;82.56;99425.84;5010660;28;20042;-76
2021/12/06 08:17:55;;;;;;;24.00;14.52;;;;;;;2.49;81.74;99425.81;5010287;28;20040;-76
2021/12/06 08:20:20;;;;;;;19.05;12.02;;;;;;;2.44;81.94;99419.84;5009583;28;20652;-70
2021/12/06 08:22:46;;;;;;;18.92;12.70;;;;;;;2.38;81.70;99423.41;5007440;28;20062;-70
2021/12/06 08:25:12;;;;;;;20.08;12.45;;;;;;;2.39;81.92;99424.28;4991207;28;20042;-69
2021/12/06 08:27:38;;;;;;;16.58;11.88;;;;;;;2.31;82.07;99422.72;5003187;28;20030;-70
2021/12/06 08:30:04;;;;;;;16.23;11.02;;;;;;;2.27;81.73;99422.81;5009653;28;20497;-70
2021/12/06 08:32:30;;;;;;;20.48;12.80;;;;;;;2.18;81.86;99423.84;5009135;28;20038;-71
2021/12/06 08:34:55;;;;;;;18.90;13.32;;;;;;;2.12;81.84;99419.63;5008033;28;20033;-71
2021/12/06 08:37:20;;;;;;;19.20;13.60;;;;;;;2.07;81.89;99415.44;4995544;28;20113;-70
2021/12/06 08:39:46;;;;;;;20.95;13.48;;;;;;;2.07;82.50;99415.44;5012513;28;20041;-77
2021/12/06 08:42:11;;;;;;;19.70;12.07;;;;;;;2.08;82.63;99417.97;5012487;28;20034;-70
2021/12/06 08:44:37;;;;;;;18.08;11.30;;;;;;;2.15;83.36;99414.38;5013604;28;20037;-69
2021/12/06 08:47:04;;;;;;;24.00;14.23;;;;;;;2.13;82.05;99417.88;5011897;28;20026;-70
2021/12/06 08:49:29;;;;;;;16.92;11.43;;;;;;;2.14;83.14;99419.59;5013051;28;20049;-69
2021/12/06 08:51:57;;;;;;;18.38;10.80;;;;;;;2.14;82.98;99422.19;5009875;28;20034;-70
2021/12/06 08:54:26;;;;;;;13.50;10.30;;;;;;;2.08;82.79;99417.13;5012392;28;20385;-69
2021/12/06 08:56:54;;;;;;;13.05;9.13;;;;;;;2.15;82.88;99416.13;5012324;28;20034;-70
2021/12/06 08:59:20;;;;;;;15.82;10.98;;;;;;;2.22;82.71;99419.47;5011207;28;20045;-71
2021/12/06 09:01:45;;;;;;;15.50;10.52;;;;;;;2.22;82.46;99420.31;5012922;28;20134;-72
2021/12/06 09:04:12;;;;;;;16.40;10.18;;;;;;;2.28;82.34;99417.56;5014480;28;20150;-71
2021/12/06 09:06:40;;;;;;;13.90;9.75;;;;;;;2.31;82.06;99416.63;5012541;28;20026;-70
2021/12/06 09:09:08;;;;;;;12.40;9.55;;;;;;;2.38;82.00;99417.38;5012846;28;20030;-71
2021/12/06 09:11:37;;;;;;;14.10;9.50;;;;;;;2.47;81.82;99414.56;5012815;28;20374;-70
2021/12/06 09:14:03;;;;;;;11.88;8.77;;;;;;;2.60;80.48;99415.16;5000091;28;20504;-70
2021/12/06 09:16:29;;;;;;;12.77;9.50;;;;;;;2.72;80.36;99418.31;5004108;28;20042;-71
2021/12/06 09:18:54;;;;;;;9.38;7.57;;;;;;;2.96;79.03;99418.63;5009443;28;20057;-70
2021/12/06 09:21:21;;;;;;;9.70;7.18;;;;;;;3.58;76.92;99418.78;5010318;28;20037;-71
2021/12/06 09:23:48;;;;;;;14.60;7.25;;;;;;;4.23;74.44;99407.41;5008879;28;20042;-71
2021/12/06 09:26:16;;;;;;;8.82;6.18;;;;;;;5.66;70.33;99410.66;5006477;28;20077;-76
2021/12/06 09:28:41;;;;;;;9.95;5.57;;;;;;;6.99;65.68;99417.00;5006664;28;20080;-75
2021/12/06 09:31:07;;;;;;;7.88;6.35;;;;;;;8.08;61.90;99420.25;5010677;28;20069;-75
2021/12/06 09:33:34;;;;;;;8.23;5.75;;;;;;;8.93;58.56;99425.06;5009133;28;20131;-75
2021/12/06 09:36:01;;;;;;;9.20;6.25;;;;;;;9.58;56.69;99426.22;5005323;28;20038;-75
2021/12/06 09:38:33;;;;;;;7.68;6.20;;;;;;;10.06;54.28;99419.31;5000538;28;20044;-75
2021/12/06 09:40:59;;;;;;;9.15;7.07;;;;;;;10.42;51.71;99423.59;5021781;28;20812;-76
2021/12/06 09:43:26;;;;;;;7.50;5.68;;;;;;;10.49;51.15;99427.59;5011589;28;20042;-75
2021/12/06 09:45:53;;;;;;;9.35;5.82;;;;;;;10.83;50.98;99425.72;4993092;28;20117;-76
2021/12/06 09:48:20;;;;;;;9.23;6.13;;;;;;;11.06;50.57;99421.78;5009615;28;20034;-76
2021/12/06 09:50:55;;;;;;;7.63;5.65;;;;;;;11.67;49.89;99425.28;5009414;28;20038;-76
2021/12/06 09:53:23;;;;;;;;;;;;;;;11.67;47.94;99413.88;5013265;28;20041;-76
2021/12/06 09:55:53;;;;;;;6.72;5.85;;;;;;;11.75;48.03;99412.47;5012612;28;20000;-75
2021/12/06 09:58:19;;;;;;;8.35;5.45;;;;;;;11.90;46.83;99413.34;5012062;28;20060;-75
2021/12/06 10:00:51;;;;;;;6.95;4.97;;;;;;;12.05;46.72;99414.22;5013733;28;20740;-76
2021/12/06 10:03:22;;;;;;;5.63;4.93;;;;;;;12.28;46.54;99409.28;5014496;28;20105;-75
2021/12/06 10:05:48;;;;;;;6.78;6.07;;;;;;;12.38;46.07;99410.41;4991818;28;20046;-77
2021/12/06 10:08:14;;;;;;;6.10;4.93;;;;;;;12.28;46.57;99414.59;5011945;28;20057;-77
2021/12/06 10:10:40;;;;;;;6.90;5.90;;;;;;;12.02;45.88;99412.59;5012074;28;20101;-77
2021/12/06 10:13:05;;;;;;;6.57;5.25;;;;;;;11.25;47.71;99405.75;5013057;28;20045;-77
2021/12/06 10:15:31;;;;;;;6.32;5.57;;;;;;;10.46;49.53;99406.69;4971943;28;20049;-77
2021/12/06 10:17:59;;;;;;;8.85;6.50;;;;;;;10.04;51.25;99415.06;5011071;28;20033;-76
2021/12/06 10:20:26;;;;;;;7.53;5.60;;;;;;;9.58;52.78;99404.31;5010368;28;20512;-77
2021/12/06 10:22:54;;;;;;;8.43;6.45;;;;;;;9.11;53.78;99404.94;5009735;28;20045;-77
2021/12/06 10:25:20;;;;;;;7.78;6.28;;;;;;;8.72;54.36;99400.69;5010673;28;20444;-76
2021/12/06 10:27:58;;;;;;;7.43;6.32;;;;;;;8.25;56.26;99395.84;5007792;28;20062;-76
2021/12/06 10:30:25;;;;;;;8.13;7.07;;;;;;;7.75;57.24;99391.91;5010960;28;20037;-76
2021/12/06 10:33:01;;;;;;;13.68;7.88;;;;;;;7.51;58.43;99386.84;5014678;28;20030;-77
2021/12/06 10:35:26;;;;;;;10.82;6.93;;;;;;;7.23;58.80;99389.75;4992976;28;20033;-76
2021/12/06 10:37:54;;;;;;;9.48;7.60;;;;;;;6.87;60.44;99385.13;5011418;28;20033;-78
2021/12/06 10:40:28;;;;;;;9.70;7.07;;;;;;;6.56;61.49;99382.88;5011348;28;20048;-76
2021/12/06 10:42:55;;;;;;;11.38;8.30;;;;;;;6.21;62.91;99379.88;5012160;28;20068;-78
2021/12/06 10:45:28;;;;;;;10.85;7.80;;;;;;;6.06;63.76;99377.84;5011739;28;20030;-77
2021/12/06 10:48:11;;;;;;;11.35;7.78;;;;;;;5.94;64.17;99378.28;5012430;28;20034;-79
2021/12/06 10:50:42;;;;;;;11.85;8.18;;;;;;;5.69;65.32;99384.38;5014205;28;20112;-80
2021/12/06 10:53:08;;;;;;;13.55;8.75;;;;;;;5.53;65.81;99380.59;5014736;28;20034;-79
2021/12/06 10:55:35;;;;;;;17.08;11.27;;;;;;;5.52;66.98;99377.13;5010900;28;20026;-79
2021/12/06 10:58:04;;;;;;;11.63;9.30;;;;;;;5.43;65.76;99366.13;5014777;28;20038;-80
2021/12/06 11:00:35;;;;;;;11.40;8.45;;;;;;;5.37;66.23;99377.66;5013462;28;20034;-78
2021/12/06 11:03:03;;;;;;;14.25;9.20;;;;;;;5.28;66.26;99370.97;5011468;28;20497;-76
2021/12/06 11:05:32;;;;;;;13.63;8.07;;;;;;;5.31;66.54;99364.78;5008991;28;20057;-76
2021/12/06 11:08:11;;;;;;;13.50;9.20;;;;;;;5.18;66.57;99353.91;5022732;28;20037;-80
2021/12/06 11:10:44;;;;;;;14.80;7.80;;;;;;;5.20;66.33;99351.25;5002482;28;20038;-80
2021/12/06 11:13:13;;;;;;;13.82;8.88;;;;;;;5.18;66.17;99351.31;5015983;28;20037;-78
2021/12/06 11:15:58;;;;;;;11.68;8.60;;;;;;;5.23;66.88;99336.31;5012227;28;20037;-79
2021/12/06 11:18:39;;;;;;;12.65;9.35;;;;;;;5.27;66.40;99343.16;5012168;28;20493;-78
2021/12/06 11:21:21;;;;;;;11.98;8.57;;;;;;;5.30;66.53;99340.41;5011622;28;20044;-78
2021/12/06 11:24:09;;;;;;;15.90;8.32;;;;;;;5.33;65.75;99337.69;5012596;28;20041;-79
2021/12/06 11:26:39;;;;;;;11.70;8.93;;;;;;;5.27;66.46;99340.53;5012311;28;20038;-79
2021/12/06 11:29:11;;;;;;;19.08;10.25;;;;;;;5.29;66.56;99324.78;5018161;28;20037;-79
2021/12/06 11:31:39;;;;;;;13.95;9.57;;;;;;;5.42;66.44;99313.00;5021391;28;20033;-78
2021/12/06 11:34:07;;;;;;;11.52;8.60;;;;;;;5.41;65.51;99316.50;5016241;28;20041;-79
2021/12/06 11:36:34;;;;;;;12.63;8.85;;;;;;;5.33;65.53;99303.72;5019655;28;20026;-78
2021/12/06 11:39:06;;;;;;;13.55;10.38;;;;;;;5.19;66.24;99311.19;5019308;28;20147;-79
2021/12/06 11:41:32;;;;;;;16.50;9.88;;;;;;;5.08;66.49;99303.72;5013994;28;20555;-80